Latest Coastal Weather Observations for Hopetoun North

IDW60701

Issued at 2:52 pm WST Monday 22 December 2014 (issued every 10 minutes, with the page automatically refreshed every 10 minutes)

About coastal observations | Map of coastal stations | Coastal observations for WA | Marine services | Other Formats
Station Details ID: 009961 Name: HOPETOUN NORTH Lat: -33.93 Lon: 120.13 Height: 26.0 m
Data from the previous 72 hours. | See also: Recent months at Hopetoun North
Date/Time
WST
Temp

°C
Wind Pressure Rain
since 9am
mm
Weather Cloud Vis
km
Sea
Height
m
Swell
Dir
 
Speed
knots
Gust
knots
hPa Trend Height
m
Period
s
Dir
22/02:30pm 19.0 S 11 15 1017.9 - 0.0 - - - - - - -
22/02:00pm 19.6 SSE 10 14 1017.9 - 0.0 - - - - - - -
22/01:30pm 19.5 S 10 13 1018.0 - 0.0 - - - - - - -
22/01:00pm 19.4 S 10 14 1018.2 - 0.0 - - - - - - -
22/12:30pm 19.1 S 9 14 1018.4 - 0.0 - - - - - - -
22/12:00pm 19.7 S 8 12 1018.7 - 0.0 - - - - - - -
22/11:30am 19.6 S 8 11 1019.0 - 0.0 - - - - - - -
22/11:00am 19.1 SSW 8 11 1019.2 - 0.0 - - - - - - -
22/10:30am 18.3 SSW 9 13 1019.2 - 0.0 - - - - - - -
22/10:00am 18.9 S 9 15 1019.0 - 0.0 - - - - - - -
22/09:30am 18.3 S 9 13 1019.0 - 0.0 - - - - - - -
22/09:00am 17.5 S 9 13 1019.0 - 1.2 - - - - - - -
22/08:30am 16.9 SSW 8 11 1018.9 - 1.2 - - - - - - -
22/08:00am 16.2 S 7 11 1018.9 - 1.2 - - - - - - -
22/07:30am 16.0 SSE 3 8 1018.8 - 1.2 - - - - - - -
22/07:00am 16.0 CALM 0 0 1018.6 - 1.2 - - - - - - -
22/06:30am 16.0 NW 2 3 1018.2 - 0.6 - - - - - - -
22/06:00am 16.0 N 3 3 1017.8 - 0.4 - - - - - - -
22/05:30am 15.9 NNW 2 2 1017.6 - 0.4 - - - - - - -
22/05:00am 15.8 N 2 3 1017.5 - 0.4 - - - - - - -
22/04:30am 15.9 N 2 2 1017.3 - 0.4 - - - - - - -
22/04:00am 15.9 N 1 2 1017.0 - 0.4 - - - - - - -
22/03:30am 16.1 N 3 3 1016.9 - 0.4 - - - - - - -
22/03:00am 16.1 NNE 3 4 1016.8 - 0.4 - - - - - - -
22/02:30am 16.1 NNE 3 3 1016.9 - 0.4 - - - - - - -
22/02:00am 16.1 E 1 3 1017.2 - 0.4 - - - - - - -
22/01:30am 16.0 N 2 3 1017.4 - 0.4 - - - - - - -
22/01:00am 16.0 NNE 2 3 1017.7 - 0.4 - - - - - - -
22/12:30am 16.3 NE 2 4 1017.9 - 0.4 - - - - - - -
22/12:00am 16.5 ESE 4 6 1018.1 - 0.4 - - - - - - -
 
Date/Time
WST
Temp

°C
Wind Pressure Rain
since 9am
mm
Weather Cloud Vis
km
Sea
Height
m
Swell
Dir
 
Speed
knots
Gust
knots
hPa Trend Height
m
Period
s
Dir
21/11:30pm 16.3 ESE 3 5 1018.4 - 0.4 - - - - - - -
21/11:00pm 16.5 ESE 5 8 1018.8 - 0.4 - - - - - - -
21/10:30pm 16.8 SE 7 10 1018.8 - 0.4 - - - - - - -
21/10:00pm 16.9 SSE 9 13 1018.8 - 0.4 - - - - - - -
21/09:30pm 17.0 SSE 7 10 1018.7 - 0.4 - - - - - - -
21/09:00pm 16.9 SSE 8 12 1018.6 - 0.4 - - - - - - -
21/08:30pm 17.1 SSE 7 10 1018.5 - 0.4 - - - - - - -
21/08:00pm 17.2 S 9 13 1018.3 - 0.4 - - - - - - -
21/07:30pm 17.3 S 10 13 1018.2 - 0.4 - - - - - - -
21/07:00pm 17.6 SSE 10 14 1017.8 - 0.4 - - - - - - -
21/06:30pm 17.5 SE 8 13 1017.6 - 0.4 - - - - - - -
21/06:00pm 17.6 SSE 9 12 1017.5 - 0.4 - - - - - - -
21/05:30pm 17.4 SSE 8 12 1017.5 - 0.4 - - - - - - -
21/05:00pm 18.0 S 9 14 1017.2 - 0.4 - - - - - - -
21/04:30pm 18.3 SSE 10 14 1017.1 - 0.4 - - - - - - -
21/04:00pm 18.0 SSE 10 15 1017.1 - 0.4 - - - - - - -
21/03:30pm 17.7 S 10 13 1017.4 - 0.4 - - - - - - -
21/03:00pm 18.3 SSE 9 12 1017.3 - 0.4 - - - - - - -
21/02:30pm 17.6 SSE 10 13 1017.4 - 0.4 - - - - - - -
21/02:00pm 18.4 SSE 9 14 1017.3 - 0.4 - - - - - - -
21/01:30pm 18.3 SSE 11 15 1017.2 - 0.4 - - - - - - -
21/01:00pm 18.1 SSE 11 16 1017.2 - 0.4 - - - - - - -
21/12:30pm 18.6 SSE 11 17 1017.3 - 0.4 - - - - - - -
21/12:00pm 18.4 SSE 12 17 1017.4 - 0.4 - - - - - - -
21/11:30am 18.2 SSE 12 17 1017.5 - 0.4 - - - - - - -
21/11:00am 18.2 SSE 12 16 1017.6 - 0.4 - - - - - - -
21/10:30am 17.5 SE 11 15 1017.8 - 0.4 - - - - - - -
21/10:00am 16.7 SSE 13 18 1017.8 - 0.4 - - - - - - -
21/09:30am 16.8 SSE 13 19 1017.8 - 0.2 - - - - - - -
21/09:00am 16.8 SSE 13 19 1017.6 - 46.0 Rain - - - - - -
21/08:30am 17.0 SSE 11 17 1017.5 - 45.4 - - - - - - -
21/08:00am 16.9 SSE 10 16 1017.3 - 45.4 - - - - - - -
21/07:30am 16.6 SSE 14 20 1017.0 - 45.2 - - - - - - -
21/07:00am 16.6 SSE 13 22 1016.8 - 42.8 - - - - - - -
21/06:30am 16.7 S 14 21 1016.4 - 40.0 - - - - - - -
21/06:00am 16.9 S 16 21 1015.8 - 37.6 Rain - - - - - -
21/05:30am 16.9 SSE 15 21 1015.4 - 36.2 - - - - - - -
21/05:00am 17.1 SSE 12 19 1015.0 - 34.8 - - - - - - -
21/04:30am 17.0 SSE 11 15 1014.6 - 33.4 - - - - - - -
21/04:00am 16.6 SSE 14 19 1014.2 - 31.8 - - - - - - -
21/03:30am 16.8 SSE 13 19 1013.9 - 28.6 - - - - - - -
21/03:00am 16.8 SE 14 21 1013.5 - 26.6 Recent precip. - - - - - -
21/02:30am 17.0 SE 14 21 1013.3 - 26.2 - - - - - - -
21/02:13am 16.9 SSE 16 26 1013.3 - 25.8 - - - - - - -
21/02:00am 16.9 SSE 18 25 1013.2 - 25.6 - - - - - - -
21/01:57am 16.9 SSE 18 25 1013.2 - 25.4 - - - - - - -
21/01:30am 17.6 S 10 15 1013.3 - 24.2 - - - - - - -
21/01:00am 17.3 SSE 11 16 1013.4 - 21.0 - - - - - - -
21/12:30am 17.6 SSE 10 15 1013.2 - 18.4 - - - - - - -
21/12:00am 17.6 SSE 9 15 1013.2 - 17.4 Rain - - - - - -
 
Date/Time
WST
Temp

°C
Wind Pressure Rain
since 9am
mm
Weather Cloud Vis
km
Sea
Height
m
Swell
Dir
 
Speed
knots
Gust
knots
hPa Trend Height
m
Period
s
Dir
20/11:30pm 17.7 SSE 9 13 1013.1 - 16.8 - - - - - - -
20/11:00pm 17.8 SE 8 12 1013.1 - 16.6 - - - - - - -
20/10:30pm 17.9 SE 7 12 1013.1 - 16.6 - - - - - - -
20/10:00pm 18.4 SSE 9 14 1012.8 - 16.4 - - - - - - -
20/09:30pm 18.7 SSE 9 12 1012.6 - 16.4 - - - - - - -
20/09:00pm 18.7 SSE 9 13 1012.5 - 16.4 - - - - - - -
20/08:30pm 18.7 SSE 8 11 1012.1 - 16.4 - - - - - - -
20/08:00pm 18.5 SSE 9 13 1011.8 - 16.4 - - - - - - -
20/07:30pm 18.3 SE 8 12 1011.7 - 16.4 - - - - - - -
20/07:00pm 18.4 SE 7 11 1011.5 - 16.4 - - - - - - -
20/06:30pm 18.7 SSE 11 14 1011.1 - 16.2 - - - - - - -
20/06:00pm 19.0 S 7 11 1010.8 - 16.2 - - - - - - -
20/05:30pm 19.1 SSE 8 13 1010.1 - 16.2 - - - - - - -
20/05:00pm 19.4 SSE 7 9 1009.6 - 16.2 - - - - - - -
20/04:30pm 19.9 S 8 11 1009.2 - 16.2 - - - - - - -
20/04:00pm 19.3 S 10 13 1009.2 - 16.2 - - - - - - -
20/03:30pm 19.1 S 10 15 1008.6 - 16.2 - - - - - - -
20/03:00pm 18.7 S 12 16 1008.1 - 16.2 Recent precip. - - - - - -
20/02:30pm 19.1 S 12 16 1007.8 - 16.2 - - - - - - -
20/02:00pm 18.4 SSE 8 13 1008.1 - 15.8 - - - - - - -
20/01:30pm 18.9 S 11 17 1007.7 - 9.6 - - - - - - -
20/01:00pm 18.8 SE 9 14 1007.5 - 9.6 - - - - - - -
20/12:30pm 18.6 W 5 8 1007.4 - 9.0 - - - - - - -
20/12:00pm 18.5 SE 6 10 1007.5 - 8.0 Rain - - - - - -
20/11:30am 18.5 ESE 12 17 1006.1 - 2.6 - - - - - - -
20/11:00am 19.5 E 9 14 1007.8 - 0.0 - - - - - - -
20/10:30am 20.2 ESE 11 17 1007.1 - 0.0 - - - - - - -
20/10:00am 21.3 SE 15 19 1006.9 - 0.0 - - - - - - -
20/09:30am 21.9 SSE 12 15 1007.2 - 0.0 - - - - - - -
20/09:00am 22.9 SSE 8 10 1007.6 - 0.0 - - - - - - -
20/08:30am 24.2 ENE 3 5 1007.9 - 0.0 - - - - - - -
20/08:00am 21.7 NE 2 4 1008.6 - 0.0 - - - - - - -
20/07:30am 18.4 NNE 3 3 1009.1 - 0.0 - - - - - - -
20/07:00am 18.1 NE 4 5 1009.3 - 0.0 - - - - - - -
20/06:30am 17.7 NE 6 10 1009.4 - 0.0 - - - - - - -
20/06:00am 17.2 ENE 3 5 1009.6 - 0.0 - - - - - - -
20/05:30am 16.3 ENE 3 5 1009.6 - 0.0 - - - - - - -
20/05:00am 16.3 NE 4 5 1009.6 - 0.0 - - - - - - -
20/04:30am 16.3 ENE 5 7 1009.6 - 0.0 - - - - - - -
20/04:00am 16.1 NE 4 5 1009.6 - 0.0 - - - - - - -
20/03:30am 16.6 NNE 3 5 1010.0 - 0.0 - - - - - - -
20/03:00am 17.2 ENE 5 7 1009.6 - 0.0 - - - - - - -
20/02:30am 17.3 ENE 3 4 1010.0 - 0.0 - - - - - - -
20/02:00am 17.3 E 3 5 1010.0 - 0.0 - - - - - - -
20/01:30am 18.0 ENE 8 11 1010.1 - 0.0 - - - - - - -
20/01:00am 18.4 ENE 10 14 1010.1 - 0.0 - - - - - - -
20/12:30am 18.8 E 10 14 1010.8 - 0.0 - - - - - - -
20/12:00am 18.6 E 6 10 1011.9 - 0.0 - - - - - - -
 
Date/Time
WST
Temp

°C
Wind Pressure Rain
since 9am
mm
Weather Cloud Vis
km
Sea
Height
m
Swell
Dir
 
Speed
knots
Gust
knots
hPa Trend Height
m
Period
s
Dir
19/11:30pm 18.6 E 8 13 1012.0 - 0.0 - - - - - - -
19/11:00pm 18.7 E 7 11 1012.4 - 0.0 - - - - - - -
19/10:30pm 18.7 E 8 11 1012.8 - 0.0 - - - - - - -
19/10:00pm 18.7 E 7 11 1013.1 - 0.0 - - - - - - -
19/09:30pm 18.6 E 8 11 1013.1 - 0.0 - - - - - - -
19/09:00pm 18.8 E 8 12 1013.2 - 0.0 - - - - - - -
19/08:30pm 18.8 E 8 13 1013.0 - 0.0 - - - - - - -
19/08:00pm 19.0 E 10 17 1013.0 - 0.0 - - - - - - -
19/07:30pm 19.2 E 11 18 1012.8 - 0.0 - - - - - - -
19/07:00pm 19.5 E 12 19 1012.6 - 0.0 - - - - - - -
19/06:30pm 20.0 E 13 21 1012.2 - 0.0 - - - - - - -
19/06:00pm 20.5 E 15 21 1012.3 - 0.0 - - - - - - -
19/05:30pm 20.9 ESE 16 23 1012.3 - 0.0 - - - - - - -
19/05:00pm 21.4 ESE 17 23 1012.4 - 0.0 - - - - - - -
19/04:30pm 22.1 ESE 15 21 1012.5 - 0.0 - - - - - - -
19/04:00pm 22.3 ESE 15 22 1013.1 - 0.0 - - - - - - -
19/03:30pm 22.4 ESE 16 21 1013.4 - 0.0 - - - - - - -
19/03:00pm 22.6 ESE 17 22 1013.8 - 0.0 - - - - - - -

Other Formats:

Comma delimited format used in spreadsheet applications
http://www.bom.gov.au/fwo/IDW60701/IDW60701.95635.axf

JavaScript Object Notation format (JSON) in row-major order
http://www.bom.gov.au/fwo/IDW60701/IDW60701.95635.json